Welcome to Des Moines Iowa Weather. I am an independent private personal weather station on the Northwest Side of Des Moines, Iowa. Just East of Windsor Heights and just West of Glendale . This site is also mobile friendly.

There are no active watches, warnings or advisories


Visit our other weather sites:

Historical Data

Weather Station Setup



Weather Underground History page Text

Daily Summary for January 27, 2017 Units:  English    Metric   Both
« Previous Day
Next Day »
Daily Weekly Monthly Yearly Custom
  High: Low: Average:
Temperature: 30.6 °F 16.3 °F 25.2 °F
Dew Point: 26.0 °F 13.0 °F 19.9 °F
Humidity: 88 % 68 % 80 %
Wind Speed: 12.0 mph 0.0 mph 3.1 mph
Wind Gust: 17.0 mph - -
Wind:- - WNW
Pressure: 30.11 in 29.99 in -
Precipitation: 0.02 in    
Historical Graphs
 
 
Tabular Data for January 27, 2017
Time Temperature Dew Point Pressure Wind Wind Speed Wind Gust Humidity Rainfall Rate (Hourly)
00:04 21.8 °F 19.0 °F 30.11 in Calm   8.0 mph 87 % 0.00 in
00:19 21.6 °F 19.0 °F 30.10 in West 2.0 mph 7.0 mph 88 % 0.00 in
00:49 21.6 °F 19.0 °F 30.09 in WNW 7.0 mph 8.0 mph 88 % 0.00 in
01:20 21.7 °F 18.0 °F 30.09 in NW 3.0 mph 5.0 mph 87 % 0.00 in
01:35 21.8 °F 19.0 °F 30.09 in NW 1.0 mph 5.0 mph 87 % 0.00 in
01:50 21.9 °F 18.0 °F 30.09 in WNW 1.0 mph 9.0 mph 86 % 0.00 in
02:05 22.0 °F 19.0 °F 30.09 in NW 12.0 mph 12.0 mph 86 % 0.00 in
02:20 22.1 °F 18.0 °F 30.09 in WNW 2.0 mph 12.0 mph 85 % 0.00 in
02:35 22.2 °F 18.0 °F 30.09 in NW 8.0 mph 11.0 mph 85 % 0.00 in
02:50 22.2 °F 18.0 °F 30.08 in NW 1.0 mph 9.0 mph 85 % 0.00 in
03:05 22.2 °F 18.0 °F 30.08 in WNW 2.0 mph 11.0 mph 85 % 0.00 in
03:20 22.1 °F 18.0 °F 30.08 in NW 5.0 mph 10.0 mph 85 % 0.00 in
03:35 21.9 °F 18.0 °F 30.09 in NNW 10.0 mph 13.0 mph 84 % 0.00 in
03:50 21.2 °F 17.0 °F 30.08 in West 2.0 mph 12.0 mph 82 % 0.00 in
04:05 20.9 °F 16.0 °F 30.08 in NNW 2.0 mph 8.0 mph 81 % 0.00 in
04:20 20.6 °F 15.0 °F 30.09 in WNW 2.0 mph 11.0 mph 80 % 0.00 in
04:35 20.4 °F 16.0 °F 30.09 in NW 2.0 mph 10.0 mph 82 % 0.00 in
04:50 20.2 °F 16.0 °F 30.09 in West 3.0 mph 8.0 mph 83 % 0.00 in
05:05 20.0 °F 16.0 °F 30.09 in NW 4.0 mph 10.0 mph 83 % 0.00 in
05:20 20.0 °F 16.0 °F 30.09 in NNW 6.0 mph 9.0 mph 83 % 0.00 in
05:35 20.0 °F 16.0 °F 30.09 in NNW 6.0 mph 9.0 mph 83 % 0.00 in
05:50 20.0 °F 16.0 °F 30.09 in NW 8.0 mph 11.0 mph 83 % 0.00 in
06:05 20.0 °F 16.0 °F 30.09 in Calm   9.0 mph 83 % 0.00 in
06:21 20.0 °F 16.0 °F 30.10 in NW 4.0 mph 6.0 mph 84 % 0.00 in
06:35 19.8 °F 16.0 °F 30.10 in NW 4.0 mph 10.0 mph 84 % 0.00 in
06:50 19.6 °F 16.0 °F 30.10 in NW 1.0 mph 8.0 mph 84 % 0.00 in
07:05 19.0 °F 15.0 °F 30.11 in NW 5.0 mph 8.0 mph 84 % 0.00 in
07:20 18.0 °F 14.0 °F 30.11 in NW 3.0 mph 6.0 mph 84 % 0.00 in
07:35 17.2 °F 13.0 °F 30.11 in WNW 2.0 mph 10.0 mph 84 % 0.00 in
07:51 16.7 °F 13.0 °F 30.11 in NW 2.0 mph 8.0 mph 85 % 0.00 in
08:05 16.4 °F 13.0 °F 30.11 in WNW 5.0 mph 5.0 mph 86 % 0.00 in
08:20 16.3 °F 13.0 °F 30.10 in West 3.0 mph 7.0 mph 86 % 0.00 in
08:35 16.5 °F 13.0 °F 30.10 in West 4.0 mph 7.0 mph 86 % 0.00 in
08:50 17.6 °F 14.0 °F 30.10 in WNW 1.0 mph 5.0 mph 86 % 0.00 in
09:06 18.3 °F 14.0 °F 30.09 in West 1.0 mph 3.0 mph 83 % 0.00 in
09:20 19.1 °F 14.0 °F 30.09 in Calm   5.0 mph 81 % 0.00 in
09:50 20.1 °F 15.0 °F 30.09 in NW 1.0 mph 6.0 mph 79 % 0.00 in
10:06 21.3 °F 15.0 °F 30.09 in West 1.0 mph 5.0 mph 77 % 0.00 in
10:21 22.5 °F 16.0 °F 30.09 in West 2.0 mph 6.0 mph 76 % 0.00 in
10:51 23.5 °F 17.0 °F 30.09 in West 1.0 mph 6.0 mph 75 % 0.00 in
11:06 23.9 °F 17.0 °F 30.08 in WSW 2.0 mph 8.0 mph 75 % 0.00 in
11:21 24.8 °F 18.0 °F 30.08 in WSW 3.0 mph 4.0 mph 75 % 0.00 in
11:36 25.6 °F 18.0 °F 30.07 in South 4.0 mph 4.0 mph 74 % 0.00 in
11:51 25.8 °F 19.0 °F 30.06 in WSW 3.0 mph 5.0 mph 74 % 0.00 in
12:06 26.4 °F 19.0 °F 30.06 in West 2.0 mph 6.0 mph 74 % 0.00 in
12:21 26.9 °F 19.0 °F 30.05 in West 3.0 mph 6.0 mph 72 % 0.00 in
12:36 27.7 °F 20.0 °F 30.04 in Calm   4.0 mph 72 % 0.00 in
12:51 28.7 °F 20.0 °F 30.04 in NW 3.0 mph 8.0 mph 71 % 0.00 in
13:06 29.3 °F 20.0 °F 30.03 in West 2.0 mph 9.0 mph 69 % 0.00 in
13:21 30.2 °F 21.0 °F 30.02 in NW 2.0 mph 6.0 mph 69 % 0.00 in
13:36 30.1 °F 21.0 °F 30.02 in WNW 2.0 mph 6.0 mph 69 % 0.01 in
13:51 30.5 °F 21.0 °F 30.02 in WNW 2.0 mph 8.0 mph 68 % 0.01 in
14:06 30.6 °F 22.0 °F 30.02 in NW 1.0 mph 8.0 mph 69 % 0.01 in
14:21 30.5 °F 21.0 °F 30.01 in West 2.0 mph 9.0 mph 69 % 0.01 in
14:36 30.0 °F 22.0 °F 30.02 in WNW 4.0 mph 7.0 mph 71 % 0.00 in
14:51 30.2 °F 22.0 °F 30.01 in WNW 2.0 mph 8.0 mph 72 % 0.01 in
15:06 30.5 °F 22.0 °F 30.01 in West 3.0 mph 10.0 mph 71 % 0.01 in
15:21 30.6 °F 22.0 °F 30.01 in WNW 1.0 mph 5.0 mph 71 % 0.01 in
15:36 30.5 °F 22.0 °F 30.01 in WSW 3.0 mph 6.0 mph 71 % 0.01 in
15:51 30.6 °F 23.0 °F 30.02 in WSW 2.0 mph 10.0 mph 72 % 0.00 in
16:06 30.5 °F 23.0 °F 30.01 in NW 5.0 mph 5.0 mph 73 % 0.00 in
16:22 30.4 °F 23.0 °F 30.01 in WNW 3.0 mph 9.0 mph 73 % 0.00 in
16:36 30.5 °F 23.0 °F 30.00 in West 1.0 mph 4.0 mph 73 % 0.00 in
16:51 30.2 °F 23.0 °F 30.00 in Calm   3.0 mph 74 % 0.00 in
17:06 30.1 °F 23.0 °F 30.00 in WNW 2.0 mph 4.0 mph 76 % 0.00 in
17:21 30.1 °F 24.0 °F 30.01 in WSW 1.0 mph 4.0 mph 77 % 0.00 in
17:36 30.0 °F 24.0 °F 30.01 in WSW 2.0 mph 4.0 mph 78 % 0.00 in
17:53 30.0 °F 24.0 °F 30.01 in WNW 2.0 mph 5.0 mph 78 % 0.00 in
18:07 30.2 °F 24.0 °F 30.01 in West 2.0 mph 7.0 mph 79 % 0.00 in
18:22 30.2 °F 24.0 °F 30.01 in West 2.0 mph 10.0 mph 79 % 0.00 in
18:37 30.4 °F 25.0 °F 30.00 in NW 3.0 mph 8.0 mph 80 % 0.00 in
18:52 30.4 °F 25.0 °F 30.00 in WNW 4.0 mph 8.0 mph 80 % 0.00 in
19:07 30.3 °F 25.0 °F 30.00 in WNW 4.0 mph 9.0 mph 81 % 0.00 in
19:22 30.2 °F 25.0 °F 30.01 in WNW 3.0 mph 11.0 mph 82 % 0.00 in
19:37 30.0 °F 25.0 °F 30.01 in WNW 5.0 mph 9.0 mph 83 % 0.00 in
19:52 29.8 °F 26.0 °F 30.00 in NW 3.0 mph 11.0 mph 84 % 0.00 in
20:07 29.8 °F 26.0 °F 30.00 in North 8.0 mph 10.0 mph 84 % 0.00 in
20:22 29.7 °F 26.0 °F 30.00 in NW 5.0 mph 11.0 mph 85 % 0.00 in
20:37 29.5 °F 26.0 °F 30.00 in NW 8.0 mph 11.0 mph 85 % 0.00 in
20:52 29.2 °F 25.0 °F 30.00 in WNW 4.0 mph 10.0 mph 85 % 0.00 in
21:07 28.9 °F 25.0 °F 30.00 in NW 4.0 mph 12.0 mph 85 % 0.00 in
21:22 28.6 °F 25.0 °F 30.00 in NNW 3.0 mph 10.0 mph 86 % 0.00 in
21:37 28.5 °F 25.0 °F 30.00 in NW 4.0 mph 11.0 mph 86 % 0.00 in
21:52 28.3 °F 25.0 °F 30.00 in West 4.0 mph 17.0 mph 86 % 0.00 in
22:07 28.2 °F 25.0 °F 30.00 in NW 4.0 mph 10.0 mph 86 % 0.00 in
22:23 28.2 °F 25.0 °F 30.00 in NW 4.0 mph 13.0 mph 87 % 0.00 in
22:37 28.0 °F 24.0 °F 30.00 in NW 2.0 mph 15.0 mph 86 % 0.00 in
22:52 27.7 °F 24.0 °F 30.00 in NNW 5.0 mph 10.0 mph 86 % 0.00 in
23:12 27.1 °F 24.0 °F 30.00 in NW 3.0 mph 9.0 mph 86 % 0.00 in
23:22 26.7 °F 23.0 °F 30.00 in NW 3.0 mph 4.0 mph 86 % 0.00 in
23:37 26.1 °F 23.0 °F 29.99 in NW 2.0 mph 6.0 mph 87 % 0.00 in
23:52 25.7 °F 23.0 °F 29.99 in NW 1.0 mph 5.0 mph 88 % 0.00 in
Des Moines Weather and Climate
Compliments of Weather Underground - 3 mb

Script developed by  Jim McMurry - jmcmurry@mwt.net Adapted for the template by  Wim van der Kuil - Leuven-Template.eu

You find our weather info also at:

Weather Underground

Equipment we use:

Weather-station
Davis VP2 Plus

Weather-program
Davis Weatherlink.Com

Weather-server
iMac (Retina 4K, 21.5-inch, Late 2015)

Provider
Hostmonster.com

Davis VP2 Plus

Davis Weatherlink.Com

iMac (Retina 4K, 21.5-inch, Late 2015)

Hostmonster.com